sensor_id;sensor_type;location;lat;lon;timestamp;pressure;altitude;pressure_sealevel;temperature;humidity
14757;BME280;62446;53.214;10.398;2022-12-29T06:09:04;99557.88;;;7.48;99.59
14757;BME280;62446;53.214;10.398;2022-12-29T06:12:08;99555.91;;;7.60;96.25
14757;BME280;62446;53.214;10.398;2022-12-29T06:15:14;99566.72;;;7.79;94.25
14757;BME280;62446;53.214;10.398;2022-12-29T06:18:20;99555.41;;;8.04;93.31
14757;BME280;62446;53.214;10.398;2022-12-29T06:21:24;99548.25;;;7.74;92.73
14757;BME280;62446;53.214;10.398;2022-12-29T06:24:29;99549.13;;;7.92;91.80
14757;BME280;62446;53.214;10.398;2022-12-29T18:23:57;100040.78;;;6.98;80.31
14757;BME280;62446;53.214;10.398;2022-12-29T18:27:04;100049.72;;;7.30;78.44
14757;BME280;62446;53.214;10.398;2022-12-29T18:30:12;100057.13;;;7.48;77.23
14757;BME280;62446;53.214;10.398;2022-12-29T18:33:18;100049.31;;;7.64;75.20
14757;BME280;62446;53.214;10.398;2022-12-29T18:36:26;100051.28;;;7.75;74.84
14757;BME280;62446;53.214;10.398;2022-12-29T18:39:31;100050.22;;;7.76;74.19
14757;BME280;62446;53.214;10.398;2022-12-29T18:42:35;100059.22;;;7.65;74.19
14757;BME280;62446;53.214;10.398;2022-12-29T18:45:39;100055.25;;;7.60;74.14
14757;BME280;62446;53.214;10.398;2022-12-29T18:48:43;100050.69;;;7.73;73.60
14757;BME280;62446;53.214;10.398;2022-12-29T18:51:46;100056.78;;;7.75;74.59
14757;BME280;62446;53.214;10.398;2022-12-29T18:54:52;100062.75;;;7.53;74.77
14757;BME280;62446;53.214;10.398;2022-12-29T18:57:57;100047.50;;;7.57;75.08
14757;BME280;62446;53.214;10.398;2022-12-29T19:01:02;100055.28;;;7.23;75.90
14757;BME280;62446;53.214;10.398;2022-12-29T19:04:06;100057.25;;;7.53;73.71
14757;BME280;62446;53.214;10.398;2022-12-29T19:07:09;100049.78;;;7.60;74.12
14757;BME280;62446;53.214;10.398;2022-12-29T19:10:15;100042.47;;;7.73;73.91
14757;BME280;62446;53.214;10.398;2022-12-29T19:13:20;100036.38;;;7.83;73.15
14757;BME280;62446;53.214;10.398;2022-12-29T19:16:30;100031.91;;;7.70;74.17
14757;BME280;62446;53.214;10.398;2022-12-29T19:19:34;100044.13;;;7.74;74.38
14757;BME280;62446;53.214;10.398;2022-12-29T19:22:38;100051.00;;;7.65;74.69
14757;BME280;62446;53.214;10.398;2022-12-29T19:25:44;100048.38;;;7.70;75.05
14757;BME280;62446;53.214;10.398;2022-12-29T19:28:48;100048.88;;;7.48;75.68
14757;BME280;62446;53.214;10.398;2022-12-29T19:31:52;100054.16;;;7.50;76.33
14757;BME280;62446;53.214;10.398;2022-12-29T19:34:56;100055.06;;;7.43;75.75
14757;BME280;62446;53.214;10.398;2022-12-29T19:38:00;100054.97;;;7.50;76.04
14757;BME280;62446;53.214;10.398;2022-12-29T19:41:07;100062.75;;;7.53;75.76
14757;BME280;62446;53.214;10.398;2022-12-29T19:44:10;100058.47;;;7.39;74.85
14757;BME280;62446;53.214;10.398;2022-12-29T19:47:14;100060.75;;;7.42;75.12
14757;BME280;62446;53.214;10.398;2022-12-29T19:50:22;100064.94;;;7.44;75.03
14757;BME280;62446;53.214;10.398;2022-12-29T19:53:26;100058.53;;;7.51;75.11
14757;BME280;62446;53.214;10.398;2022-12-29T19:56:31;100061.38;;;7.44;74.39
14757;BME280;62446;53.214;10.398;2022-12-29T19:59:35;100068.84;;;7.55;73.43
14757;BME280;62446;53.214;10.398;2022-12-29T20:02:39;100069.31;;;7.52;73.60
14757;BME280;62446;53.214;10.398;2022-12-29T20:05:46;100059.94;;;7.60;72.81
14757;BME280;62446;53.214;10.398;2022-12-29T20:08:50;100068.69;;;7.69;72.63
14757;BME280;62446;53.214;10.398;2022-12-29T20:11:55;100067.53;;;7.58;73.60
14757;BME280;62446;53.214;10.398;2022-12-29T20:14:59;100073.88;;;7.58;72.78
14757;BME280;62446;53.214;10.398;2022-12-29T20:18:03;100063.94;;;7.76;71.96
14757;BME280;62446;53.214;10.398;2022-12-29T20:21:17;100067.16;;;7.73;71.85
14757;BME280;62446;53.214;10.398;2022-12-29T20:24:21;100057.25;;;7.53;72.25
14757;BME280;62446;53.214;10.398;2022-12-29T20:27:26;100065.00;;;7.75;72.10
14757;BME280;62446;53.214;10.398;2022-12-29T20:30:30;100065.31;;;7.67;72.57
14757;BME280;62446;53.214;10.398;2022-12-29T20:33:34;100077.22;;;7.60;72.97
14757;BME280;62446;53.214;10.398;2022-12-29T20:36:41;100096.25;;;7.74;73.30
14757;BME280;62446;53.214;10.398;2022-12-29T20:39:45;100094.31;;;7.44;77.14
14757;BME280;62446;53.214;10.398;2022-12-29T20:42:50;100105.09;;;7.20;78.67
14757;BME280;62446;53.214;10.398;2022-12-29T20:45:54;100100.09;;;7.17;79.45
14757;BME280;62446;53.214;10.398;2022-12-29T20:48:58;100097.16;;;7.12;79.14
14757;BME280;62446;53.214;10.398;2022-12-29T20:52:03;100097.47;;;7.22;78.29
14757;BME280;62446;53.214;10.398;2022-12-29T20:55:08;100104.19;;;7.26;77.89
14757;BME280;62446;53.214;10.398;2022-12-29T20:58:13;100100.94;;;7.36;76.67
14757;BME280;62446;53.214;10.398;2022-12-29T21:01:26;100110.38;;;7.22;76.46
14757;BME280;62446;53.214;10.398;2022-12-29T21:04:30;100113.47;;;7.25;76.55
14757;BME280;62446;53.214;10.398;2022-12-29T21:07:54;100116.22;;;7.07;77.32
14757;BME280;62446;53.214;10.398;2022-12-29T21:11:01;100129.94;;;7.25;76.16
14757;BME280;62446;53.214;10.398;2022-12-29T21:14:06;100125.69;;;7.30;75.93
14757;BME280;62446;53.214;10.398;2022-12-29T21:17:10;100133.44;;;7.14;75.59
14757;BME280;62446;53.214;10.398;2022-12-29T21:20:14;100145.06;;;7.35;75.37
14757;BME280;62446;53.214;10.398;2022-12-29T21:23:32;100144.72;;;7.24;74.61
14757;BME280;62446;53.214;10.398;2022-12-29T21:26:35;100149.31;;;7.31;75.15
14757;BME280;62446;53.214;10.398;2022-12-29T21:29:41;100144.59;;;7.38;74.29
14757;BME280;62446;53.214;10.398;2022-12-29T21:32:44;100145.78;;;7.42;74.22
14757;BME280;62446;53.214;10.398;2022-12-29T21:35:48;100141.06;;;7.49;72.61
14757;BME280;62446;53.214;10.398;2022-12-29T21:38:53;100144.00;;;7.54;73.08
14757;BME280;62446;53.214;10.398;2022-12-29T21:41:57;100148.25;;;7.50;72.79
14757;BME280;62446;53.214;10.398;2022-12-29T21:45:04;100150.22;;;7.43;72.78
14757;BME280;62446;53.214;10.398;2022-12-29T21:48:25;100154.59;;;7.07;71.43
14757;BME280;62446;53.214;10.398;2022-12-29T21:51:31;100157.06;;;6.83;72.07
14757;BME280;62446;53.214;10.398;2022-12-29T21:54:55;100152.56;;;6.96;72.14
14757;BME280;62446;53.214;10.398;2022-12-29T21:58:07;100157.75;;;7.04;72.36
14757;BME280;62446;53.214;10.398;2022-12-29T22:01:31;100216.03;;;6.61;73.81
14757;BME280;62446;53.214;10.398;2022-12-29T22:04:53;100236.56;;;6.38;75.71
14757;BME280;62446;53.214;10.398;2022-12-29T22:08:14;100215.06;;;5.90;75.30
14757;BME280;62446;53.214;10.398;2022-12-29T22:11:35;100209.28;;;5.59;77.63
